createdAt,value
2023-04-02T00:00:29.422Z,79.19
2023-04-02T00:04:11.641Z,79.46
2023-04-02T00:07:26.043Z,78.77
2023-04-02T00:10:32.110Z,79.41
2023-04-02T00:13:36.484Z,80.16
2023-04-02T00:16:38.305Z,79.98
2023-04-02T00:19:45.758Z,80.27
2023-04-02T00:22:48.921Z,79.75
2023-04-02T00:25:52.361Z,79.34
2023-04-02T00:28:54.644Z,79.04
2023-04-02T00:31:59.833Z,79.21
2023-04-02T00:35:02.244Z,78.89
2023-04-02T00:38:04.183Z,78.25
2023-04-02T00:41:07.948Z,77.84
2023-04-02T00:44:11.581Z,77.47
2023-04-02T00:47:18.791Z,77.35
2023-04-02T00:50:27.329Z,77.51
2023-04-02T00:53:30.732Z,76.62
2023-04-02T00:56:39.241Z,77.11
2023-04-02T00:59:51.088Z,76.79
2023-04-02T01:03:30.503Z,77.45
2023-04-02T01:06:35.892Z,77.44
2023-04-02T01:09:54.198Z,78.74
2023-04-02T01:13:07.490Z,78.68
2023-04-02T01:16:17.673Z,78.86
2023-04-02T01:19:48.798Z,79.51
2023-04-02T01:22:56.862Z,79.34
2023-04-02T01:26:04.697Z,79.36
2023-04-02T01:29:12.049Z,78.82
2023-04-02T01:32:16.955Z,78.60
2023-04-02T01:35:18.953Z,78.66
2023-04-02T01:38:27.279Z,78.81
2023-04-02T01:41:34.312Z,78.51
2023-04-02T01:44:41.646Z,77.84
2023-04-02T01:47:44.308Z,77.91
2023-04-02T01:50:49.154Z,77.62
2023-04-02T01:53:50.878Z,78.16
2023-04-02T01:56:52.800Z,77.46
2023-04-02T01:59:55.958Z,77.70
2023-04-02T02:03:00.180Z,77.32
2023-04-02T02:06:03.007Z,77.10
2023-04-02T02:09:06.963Z,76.53
2023-04-02T02:12:12.484Z,76.36
2023-04-02T02:15:18.096Z,76.65
2023-04-02T02:18:21.925Z,76.18
2023-04-02T02:21:27.974Z,76.31
2023-04-02T02:24:32.812Z,76.28
2023-04-02T02:27:45.548Z,76.09
2023-04-02T02:30:53.335Z,76.04
2023-04-02T02:34:02.294Z,76.07
2023-04-02T02:37:06.809Z,76.44
2023-04-02T02:40:13.001Z,76.47
2023-04-02T02:43:16.686Z,76.59
2023-04-02T02:46:23.809Z,76.41
2023-04-02T02:49:28.646Z,76.87
2023-04-02T02:52:33.025Z,76.95
2023-04-02T02:55:37.462Z,77.07
2023-04-02T02:58:40.092Z,76.43
2023-04-02T03:01:44.394Z,76.72
2023-04-02T03:04:51.855Z,76.25
2023-04-02T03:07:56.362Z,76.46
2023-04-02T03:11:04.692Z,76.22
2023-04-02T03:14:18.242Z,76.33
2023-04-02T03:17:27.966Z,76.66
2023-04-02T03:20:37.870Z,76.42
2023-04-02T03:23:41.570Z,76.88
2023-04-02T03:26:50.171Z,76.70
2023-04-02T03:30:03.278Z,76.98
2023-04-02T03:33:11.458Z,76.91
2023-04-02T03:36:19.915Z,76.81
2023-04-02T03:39:27.069Z,76.98
2023-04-02T03:42:37.146Z,77.32
2023-04-02T03:45:42.046Z,77.18
2023-04-02T03:48:49.262Z,77.50
2023-04-02T03:51:57.467Z,77.22
2023-04-02T03:55:01.664Z,76.97
2023-04-02T03:58:09.959Z,77.51
2023-04-02T04:01:20.293Z,76.72
2023-04-02T04:04:26.514Z,77.44
2023-04-02T04:07:32.426Z,76.87
2023-04-02T04:10:35.680Z,77.28
2023-04-02T04:13:44.267Z,77.13
2023-04-02T04:16:51.302Z,77.12
2023-04-02T04:19:59.373Z,77.93
2023-04-02T04:23:16.287Z,77.93
2023-04-02T04:26:23.082Z,77.70
2023-04-02T04:29:35.170Z,77.51
2023-04-02T04:32:39.735Z,77.48
2023-04-02T04:35:49.322Z,78.07
2023-04-02T04:38:52.182Z,77.96
2023-04-02T04:41:56.598Z,77.93
2023-04-02T04:45:03.276Z,77.95
2023-04-02T04:48:10.242Z,78.53
2023-04-02T04:51:19.905Z,78.44
2023-04-02T04:54:26.659Z,78.55
2023-04-02T04:57:33.314Z,78.35
2023-04-02T05:00:44.079Z,78.78
2023-04-02T05:03:50.970Z,78.76
2023-04-02T05:06:57.288Z,78.65
2023-04-02T05:10:04.348Z,78.52
2023-04-02T05:13:14.069Z,78.20
2023-04-02T05:16:22.841Z,78.49
2023-04-02T05:19:31.375Z,78.35
2023-04-02T05:22:41.968Z,77.80
2023-04-02T05:25:55.277Z,77.34
2023-04-02T05:29:01.732Z,77.37
2023-04-02T05:32:09.219Z,77.37
2023-04-02T05:35:16.662Z,76.80
2023-04-02T05:38:22.999Z,75.87
2023-04-02T05:41:27.055Z,76.03
2023-04-02T05:44:31.023Z,75.58
2023-04-02T05:47:34.243Z,75.26
2023-04-02T05:50:41.008Z,74.71
2023-04-02T05:53:50.963Z,74.61
2023-04-02T05:56:55.811Z,73.70
2023-04-02T06:00:00.552Z,74.02
2023-04-02T06:03:06.201Z,73.85
2023-04-02T06:06:17.495Z,73.90
2023-04-02T06:09:29.378Z,73.83
2023-04-02T06:12:37.760Z,73.54
2023-04-02T06:15:39.599Z,73.17
2023-04-02T06:18:43.059Z,72.75
2023-04-02T06:21:45.398Z,71.93
2023-04-02T06:24:56.091Z,70.49
2023-04-02T06:28:01.452Z,70.80
2023-04-02T06:31:07.900Z,70.72
2023-04-02T06:34:15.888Z,69.43
2023-04-02T06:37:24.584Z,69.39
2023-04-02T06:40:40.520Z,69.63
2023-04-02T06:43:44.417Z,69.53
2023-04-02T06:46:51.796Z,68.23
2023-04-02T06:50:01.305Z,67.67
2023-04-02T06:53:07.020Z,67.41
2023-04-02T06:56:21.977Z,67.70
2023-04-02T06:59:24.216Z,67.39
2023-04-02T07:02:31.297Z,66.96
2023-04-02T07:05:33.326Z,66.49
2023-04-02T07:08:35.286Z,65.94
2023-04-02T07:11:38.841Z,65.72
2023-04-02T07:14:40.661Z,65.85
2023-04-02T07:17:42.735Z,64.89
2023-04-02T07:20:44.619Z,65.15
2023-04-02T07:23:46.429Z,63.77
2023-04-02T07:26:49.788Z,64.33
2023-04-02T07:29:51.756Z,62.52
2023-04-02T07:32:53.530Z,63.53
2023-04-02T07:35:57.040Z,63.19
2023-04-02T07:38:59.101Z,61.05
2023-04-02T07:42:02.671Z,61.63
2023-04-02T07:45:06.111Z,61.49
2023-04-02T07:48:10.004Z,61.08
2023-04-02T07:51:17.182Z,60.12
2023-04-02T07:54:18.890Z,60.16
2023-04-02T07:57:22.096Z,59.70
2023-04-02T08:00:24.900Z,59.67
2023-04-02T08:03:26.934Z,59.81
2023-04-02T08:06:29.022Z,57.42
2023-04-02T08:09:30.709Z,57.98
2023-04-02T08:12:33.763Z,58.48
2023-04-02T08:15:35.796Z,58.11
2023-04-02T08:18:37.832Z,57.53
2023-04-02T08:21:39.541Z,56.60
2023-04-02T08:24:41.236Z,55.10
2023-04-02T08:27:46.842Z,53.85
2023-04-02T08:30:49.015Z,54.43
2023-04-02T08:33:50.781Z,55.24
2023-04-02T08:36:56.465Z,52.83
2023-04-02T08:39:58.154Z,52.44
2023-04-02T08:43:24.125Z,52.45
2023-04-02T08:46:30.640Z,52.35
2023-04-02T08:49:37.689Z,52.22
2023-04-02T08:52:39.714Z,50.24
2023-04-02T08:55:45.422Z,50.64
2023-04-02T08:58:50.910Z,50.67
2023-04-02T09:01:58.089Z,50.42
2023-04-02T09:05:04.393Z,51.08
2023-04-02T09:08:17.764Z,50.10
2023-04-02T09:11:24.439Z,50.46
2023-04-02T09:14:39.157Z,50.61
2023-04-02T09:17:53.687Z,51.27
2023-04-02T09:20:56.358Z,52.29
2023-04-02T09:23:58.108Z,50.94
2023-04-02T09:26:59.889Z,50.67
2023-04-02T09:30:10.850Z,51.78
2023-04-02T09:33:12.889Z,52.21
2023-04-02T09:36:33.992Z,51.62
2023-04-02T09:39:35.784Z,50.98
2023-04-02T09:42:37.691Z,51.24
2023-04-02T09:45:41.508Z,51.18
2023-04-02T09:48:45.488Z,51.21
2023-04-02T09:52:07.506Z,50.80
2023-04-02T09:55:22.538Z,50.94
2023-04-02T09:58:24.201Z,50.44
2023-04-02T10:01:30.100Z,49.40
2023-04-02T10:04:37.480Z,49.82
2023-04-02T10:07:41.387Z,48.79
2023-04-02T10:10:46.486Z,49.51
2023-04-02T10:13:52.899Z,48.87
2023-04-02T10:16:59.677Z,47.33
2023-04-02T10:20:05.793Z,47.99
2023-04-02T10:23:15.527Z,50.12
2023-04-02T10:26:46.262Z,48.88
2023-04-02T10:30:09.970Z,49.11
2023-04-02T10:33:18.852Z,48.91
2023-04-02T10:36:28.732Z,48.24
2023-04-02T10:39:38.975Z,47.69
2023-04-02T10:42:51.388Z,47.73
2023-04-02T10:46:00.706Z,48.03
2023-04-02T10:49:16.784Z,48.83
2023-04-02T10:52:24.154Z,47.04
2023-04-02T10:55:30.350Z,46.46
2023-04-02T10:58:37.746Z,44.03
2023-04-02T11:01:42.872Z,46.10
2023-04-02T11:04:47.017Z,47.31
2023-04-02T11:07:57.281Z,45.99
2023-04-02T11:11:04.556Z,46.25
2023-04-02T11:14:12.818Z,46.28
2023-04-02T11:17:15.944Z,46.19
2023-04-02T11:20:57.335Z,45.20
2023-04-02T11:24:01.572Z,45.91
2023-04-02T11:27:15.757Z,44.43
2023-04-02T11:30:23.990Z,46.15
2023-04-02T11:33:42.246Z,47.58
2023-04-02T11:37:07.740Z,46.95
2023-04-02T11:40:48.395Z,46.80
2023-04-02T11:43:52.208Z,46.34
2023-04-02T11:47:18.011Z,47.24
2023-04-02T11:50:30.842Z,48.39
2023-04-02T11:53:34.693Z,45.97
2023-04-02T11:56:45.766Z,46.45
2023-04-02T12:00:00.240Z,48.61
2023-04-02T12:03:24.099Z,44.98
2023-04-02T12:06:34.405Z,46.65
2023-04-02T12:09:44.736Z,47.62
2023-04-02T12:12:49.122Z,48.67
2023-04-02T12:15:52.723Z,48.06
2023-04-02T12:18:54.868Z,48.36
2023-04-02T12:21:58.385Z,48.85
2023-04-02T12:25:04.030Z,47.75
2023-04-02T12:28:15.350Z,47.82
2023-04-02T12:31:17.294Z,48.08
2023-04-02T12:34:21.830Z,50.00
2023-04-02T12:37:26.184Z,47.01
2023-04-02T12:40:28.556Z,45.48
2023-04-02T12:43:33.406Z,45.94
2023-04-02T12:46:36.041Z,50.45
2023-04-02T12:49:40.152Z,49.77
2023-04-02T12:52:45.290Z,48.99
2023-04-02T12:55:48.518Z,49.80
2023-04-02T12:58:56.343Z,48.17
2023-04-02T13:01:59.958Z,47.25
2023-04-02T13:05:02.274Z,46.92
2023-04-02T13:08:04.860Z,46.87
2023-04-02T13:11:06.987Z,46.75
2023-04-02T13:14:19.378Z,47.25
2023-04-02T13:17:42.674Z,48.12
2023-04-02T13:20:55.653Z,48.62
2023-04-02T13:23:57.532Z,48.70
2023-04-02T13:27:00.754Z,48.63
2023-04-02T13:30:09.650Z,49.39
2023-04-02T13:33:11.325Z,50.51
2023-04-02T13:36:14.748Z,50.71
2023-04-02T13:39:18.349Z,51.46
2023-04-02T13:42:20.409Z,52.24
2023-04-02T13:45:26.617Z,52.99
2023-04-02T13:48:28.635Z,53.94
2023-04-02T13:51:36.438Z,54.75
2023-04-02T13:54:46.121Z,54.99
2023-04-02T13:57:49.142Z,55.80
2023-04-02T14:00:53.356Z,55.05
2023-04-02T14:03:56.184Z,55.64
2023-04-02T14:07:24.764Z,56.24
2023-04-02T14:10:39.740Z,55.39
2023-04-02T14:14:00.236Z,53.00
2023-04-02T14:17:16.008Z,55.02
2023-04-02T14:20:33.569Z,56.11
2023-04-02T14:23:48.451Z,56.18
2023-04-02T14:27:04.375Z,55.70
2023-04-02T14:30:15.264Z,54.68
2023-04-02T14:33:33.342Z,55.35
2023-04-02T14:36:45.688Z,56.14
2023-04-02T14:39:57.369Z,56.56
2023-04-02T14:43:04.091Z,56.64
2023-04-02T14:46:07.719Z,56.95
2023-04-02T14:49:24.142Z,57.89
2023-04-02T14:52:28.808Z,57.18
2023-04-02T14:55:36.280Z,57.99
2023-04-02T14:58:43.480Z,59.67
2023-04-02T15:01:49.471Z,59.77
2023-04-02T15:04:59.586Z,58.75
2023-04-02T15:08:07.120Z,59.01
2023-04-02T15:11:15.101Z,59.24
2023-04-02T15:14:20.471Z,58.61
2023-04-02T15:17:23.548Z,62.91
2023-04-02T15:20:37.124Z,63.65
2023-04-02T15:23:51.682Z,69.06
2023-04-02T15:27:01.425Z,73.59
2023-04-02T15:30:11.272Z,74.56
2023-04-02T15:33:38.702Z,76.88
2023-04-02T15:37:01.600Z,76.10
2023-04-02T15:40:20.209Z,75.44
2023-04-02T15:43:28.968Z,76.41
2023-04-02T15:46:43.249Z,76.51
2023-04-02T15:49:53.690Z,77.25
2023-04-02T15:53:00.959Z,77.08
2023-04-02T15:56:14.949Z,77.48
2023-04-02T15:59:48.920Z,77.85
2023-04-02T16:03:05.440Z,78.67
2023-04-02T16:06:28.683Z,79.65
2023-04-02T16:09:45.410Z,78.62
2023-04-02T16:12:49.948Z,79.70
2023-04-02T16:15:56.635Z,78.86
2023-04-02T16:19:03.531Z,78.73
2023-04-02T16:22:12.687Z,78.57
2023-04-02T16:25:20.149Z,77.82
2023-04-02T16:28:28.235Z,78.85
2023-04-02T16:31:41.395Z,78.64
2023-04-02T16:34:55.084Z,78.87
2023-04-02T16:38:11.864Z,79.54
2023-04-02T16:41:22.984Z,78.86
2023-04-02T16:44:32.443Z,78.53
2023-04-02T16:47:53.732Z,77.96
2023-04-02T16:51:07.543Z,79.48
2023-04-02T16:54:14.836Z,79.27
2023-04-02T16:57:30.450Z,78.46
2023-04-02T17:00:39.667Z,78.91
2023-04-02T17:04:01.098Z,79.10
2023-04-02T17:07:15.281Z,79.44
2023-04-02T17:10:29.312Z,79.33
2023-04-02T17:13:40.181Z,78.26
2023-04-02T17:16:44.975Z,77.79
2023-04-02T17:19:49.958Z,77.41
2023-04-02T17:22:53.804Z,76.98
2023-04-02T17:26:02.107Z,77.25
2023-04-02T17:29:10.121Z,75.83
2023-04-02T17:32:18.663Z,76.85
2023-04-02T17:35:30.081Z,77.86
2023-04-02T17:38:41.025Z,76.97
2023-04-02T17:41:48.439Z,78.62
2023-04-02T17:45:03.266Z,79.64
2023-04-02T17:48:15.726Z,78.09
2023-04-02T17:51:25.797Z,77.69
2023-04-02T17:54:40.507Z,77.59
2023-04-02T17:57:52.263Z,80.20
2023-04-02T18:01:07.069Z,78.92
2023-04-02T18:04:22.324Z,78.18
2023-04-02T18:07:39.652Z,78.19
2023-04-02T18:10:51.292Z,77.73
2023-04-02T18:13:59.871Z,77.62
2023-04-02T18:17:15.214Z,78.61
2023-04-02T18:20:29.106Z,78.50
2023-04-02T18:23:43.275Z,77.85
2023-04-02T18:26:53.348Z,79.58
2023-04-02T18:30:07.190Z,77.67
2023-04-02T18:33:26.698Z,77.99
2023-04-02T18:36:38.708Z,79.13
2023-04-02T18:39:55.290Z,81.71
2023-04-02T18:43:07.695Z,83.46
2023-04-02T18:46:21.707Z,83.90
2023-04-02T18:49:34.049Z,83.89
2023-04-02T18:52:38.311Z,83.34
2023-04-02T18:55:46.091Z,83.03
2023-04-02T18:58:56.994Z,79.60
2023-04-02T19:02:07.338Z,76.67
2023-04-02T19:05:24.380Z,77.64
2023-04-02T19:08:33.351Z,79.37
2023-04-02T19:11:36.133Z,80.16
2023-04-02T19:14:39.746Z,81.46
2023-04-02T19:17:47.356Z,82.02
2023-04-02T19:20:57.683Z,81.50
2023-04-02T19:24:17.233Z,81.84
2023-04-02T19:27:25.857Z,81.70
2023-04-02T19:30:41.866Z,82.77
2023-04-02T19:33:50.569Z,82.77
2023-04-02T19:37:00.709Z,81.70
2023-04-02T19:40:21.524Z,81.22
2023-04-02T19:43:24.360Z,80.93
2023-04-02T19:46:28.213Z,81.55
2023-04-02T19:49:35.483Z,82.53
2023-04-02T19:52:40.350Z,82.23
2023-04-02T19:55:43.802Z,82.88
2023-04-02T19:58:46.457Z,83.05
2023-04-02T20:01:51.346Z,83.39
2023-04-02T20:04:54.298Z,82.72
2023-04-02T20:07:58.307Z,83.01
2023-04-02T20:11:01.138Z,83.04
2023-04-02T20:14:04.511Z,83.43
2023-04-02T20:17:07.983Z,82.58
2023-04-02T20:20:12.221Z,81.15
2023-04-02T20:23:16.697Z,81.54
2023-04-02T20:26:19.022Z,81.27
2023-04-02T20:29:21.282Z,81.97
2023-04-02T20:32:24.772Z,82.30
2023-04-02T20:35:26.770Z,83.00
2023-04-02T20:38:32.182Z,83.10
2023-04-02T20:41:34.157Z,82.89
2023-04-02T20:44:35.971Z,83.69
2023-04-02T20:47:38.181Z,82.63
2023-04-02T20:50:40.205Z,80.92
2023-04-02T20:53:44.339Z,81.12
2023-04-02T20:56:46.498Z,81.64
2023-04-02T20:59:48.460Z,81.98
2023-04-02T21:02:50.300Z,81.21
2023-04-02T21:05:52.004Z,80.51
2023-04-02T21:08:55.126Z,80.80
2023-04-02T21:11:56.805Z,81.00
2023-04-02T21:15:00.231Z,81.36
2023-04-02T21:18:03.970Z,81.94
2023-04-02T21:21:07.432Z,82.54
2023-04-02T21:24:10.729Z,82.94
2023-04-02T21:27:12.396Z,82.76
2023-04-02T21:30:14.395Z,83.43
2023-04-02T21:33:16.098Z,82.41
2023-04-02T21:36:20.032Z,83.13
2023-04-02T21:39:24.065Z,82.79
2023-04-02T21:42:25.709Z,82.99
2023-04-02T21:45:28.082Z,82.94
2023-04-02T21:48:29.872Z,82.70
2023-04-02T21:51:33.642Z,82.85
2023-04-02T21:54:36.685Z,83.18
2023-04-02T21:57:38.465Z,83.13
2023-04-02T22:00:40.250Z,83.36
2023-04-02T22:03:42.282Z,83.95
2023-04-02T22:06:45.252Z,83.38
2023-04-02T22:09:48.559Z,84.58
2023-04-02T22:12:50.227Z,85.39
2023-04-02T22:15:51.915Z,85.30
2023-04-02T22:18:55.163Z,85.44
2023-04-02T22:21:57.353Z,84.76
2023-04-02T22:25:00.636Z,85.04
2023-04-02T22:28:02.344Z,84.99
2023-04-02T22:31:05.663Z,84.31
2023-04-02T22:34:07.631Z,84.25
2023-04-02T22:37:09.292Z,85.94
2023-04-02T22:40:12.839Z,86.01
2023-04-02T22:43:14.496Z,85.62
2023-04-02T22:46:18.011Z,83.55
2023-04-02T22:49:19.803Z,84.63
2023-04-02T22:52:21.512Z,83.88
2023-04-02T22:55:24.595Z,82.66
2023-04-02T22:58:26.283Z,82.48
2023-04-02T23:01:29.969Z,82.70
2023-04-02T23:04:31.721Z,82.31
2023-04-02T23:07:33.850Z,82.67
2023-04-02T23:10:37.347Z,83.46
2023-04-02T23:13:39.573Z,82.94
2023-04-02T23:16:41.247Z,83.96
2023-04-02T23:19:42.952Z,84.23
2023-04-02T23:22:44.625Z,84.34
2023-04-02T23:25:47.926Z,84.88
2023-04-02T23:28:50.515Z,85.58
2023-04-02T23:31:52.236Z,86.16
2023-04-02T23:34:53.950Z,85.88
2023-04-02T23:37:55.752Z,86.63
2023-04-02T23:40:58.886Z,85.82
2023-04-02T23:44:00.876Z,86.22
2023-04-02T23:47:02.599Z,85.86
2023-04-02T23:50:04.924Z,86.44
2023-04-02T23:53:06.641Z,87.37
2023-04-02T23:56:10.204Z,87.19
2023-04-02T23:59:11.912Z,87.04
